ADDS METAR Data INFO
IDs: Format: Raw Decoded Include TAF

Data at: 0523 UTC 17 Aug 2018

METAR for:KAUS (Austin/Bergstrom Int, TX, US)
Text:KAUS 170453Z 18012G17KT 10SM CLR 28/22 A3006 RMK AO2 SLP168 T02830222 $
Temperature: 28.3°C ( 83°F)
Dewpoint: 22.2°C ( 72°F) [RH = 70%]
Pressure (altimeter):30.06 inches Hg (1018.0 mb) [Sea level pressure: 1016.8 mb]
Winds:from the S (180 degrees) at 14 MPH (12 knots; 6.2 m/s) gusting to 20 MPH (17 knots; 8.7 m/s)
Visibility:10 or more sm (16+ km)
Ceiling:at least 12,000 feet AGL
Clouds:sky clear below 12,000 feet AGL
QC Flag:SOME DATA ABOVE MAY BE INACCURATE!!!"$" is an indication the sensor requires maintenance.